sensor_id;sensor_type;location;lat;lon;timestamp;pressure;altitude;pressure_sealevel;temperature;humidity
32933;BME280;19444;50.518;10.870;2023-02-01T00:02:35;96641.38;;;1.14;100.00
32933;BME280;19444;50.518;10.870;2023-02-01T00:05:36;96635.47;;;1.07;100.00
32933;BME280;19444;50.518;10.870;2023-02-01T00:08:33;96633.06;;;1.05;100.00
32933;BME280;19444;50.518;10.870;2023-02-01T00:11:29;96631.78;;;1.08;100.00
32933;BME280;19444;50.518;10.870;2023-02-01T00:14:27;96635.88;;;0.99;100.00
32933;BME280;19444;50.518;10.870;2023-02-01T00:17:24;96623.81;;;1.03;100.00
32933;BME280;19444;50.518;10.870;2023-02-01T00:20:21;96640.56;;;0.92;100.00
32933;BME280;19444;50.518;10.870;2023-02-01T00:23:18;96634.09;;;0.82;100.00
32933;BME280;19444;50.518;10.870;2023-02-01T00:26:17;96629.13;;;0.86;100.00
32933;BME280;19444;50.518;10.870;2023-02-01T00:29:18;96619.50;;;0.97;100.00
32933;BME280;19444;50.518;10.870;2023-02-01T00:32:16;96628.72;;;0.94;100.00
32933;BME280;19444;50.518;10.870;2023-02-01T00:35:13;96620.63;;;1.01;100.00
32933;BME280;19444;50.518;10.870;2023-02-01T00:38:10;96630.72;;;0.87;100.00
32933;BME280;19444;50.518;10.870;2023-02-01T00:41:10;96636.25;;;0.85;100.00
32933;BME280;19444;50.518;10.870;2023-02-01T00:44:07;96641.97;;;0.99;100.00
32933;BME280;19444;50.518;10.870;2023-02-01T00:47:03;96631.91;;;0.96;100.00
32933;BME280;19444;50.518;10.870;2023-02-01T00:50:00;96633.31;;;1.04;100.00
32933;BME280;19444;50.518;10.870;2023-02-01T00:52:57;96629.09;;;1.25;100.00
32933;BME280;19444;50.518;10.870;2023-02-01T00:55:54;96623.66;;;1.31;100.00
32933;BME280;19444;50.518;10.870;2023-02-01T00:58:51;96623.56;;;1.26;100.00
32933;BME280;19444;50.518;10.870;2023-02-01T01:01:47;96622.22;;;1.24;100.00
32933;BME280;19444;50.518;10.870;2023-02-01T01:04:44;96617.03;;;1.29;100.00
32933;BME280;19444;50.518;10.870;2023-02-01T01:07:41;96624.06;;;1.45;100.00
32933;BME280;19444;50.518;10.870;2023-02-01T01:10:38;96623.59;;;1.48;100.00
32933;BME280;19444;50.518;10.870;2023-02-01T01:13:35;96647.28;;;1.43;100.00
32933;BME280;19444;50.518;10.870;2023-02-01T01:16:32;96631.28;;;1.50;100.00
32933;BME280;19444;50.518;10.870;2023-02-01T01:19:29;96627.72;;;1.39;100.00
32933;BME280;19444;50.518;10.870;2023-02-01T01:22:26;96627.88;;;1.32;100.00
32933;BME280;19444;50.518;10.870;2023-02-01T01:25:23;96628.38;;;1.29;100.00
32933;BME280;19444;50.518;10.870;2023-02-01T01:28:19;96630.22;;;1.29;100.00
32933;BME280;19444;50.518;10.870;2023-02-01T01:31:17;96638.28;;;1.39;100.00
32933;BME280;19444;50.518;10.870;2023-02-01T01:34:14;96639.75;;;1.30;100.00
32933;BME280;19444;50.518;10.870;2023-02-01T01:37:11;96642.84;;;1.27;100.00
32933;BME280;19444;50.518;10.870;2023-02-01T01:40:09;96625.63;;;1.19;100.00
32933;BME280;19444;50.518;10.870;2023-02-01T01:43:16;96609.22;;;1.39;100.00
32933;BME280;19444;50.518;10.870;2023-02-01T01:46:21;96612.59;;;1.34;100.00
32933;BME280;19444;50.518;10.870;2023-02-01T01:49:22;96606.84;;;1.37;100.00
32933;BME280;19444;50.518;10.870;2023-02-01T01:52:20;96605.22;;;1.36;100.00
32933;BME280;19444;50.518;10.870;2023-02-01T01:55:18;96597.88;;;1.38;100.00
32933;BME280;19444;50.518;10.870;2023-02-01T01:58:22;96587.19;;;1.28;100.00
32933;BME280;19444;50.518;10.870;2023-02-01T02:01:20;96582.94;;;1.27;100.00
32933;BME280;19444;50.518;10.870;2023-02-01T02:04:17;96574.28;;;1.32;100.00
32933;BME280;19444;50.518;10.870;2023-02-01T02:07:23;96573.66;;;1.25;100.00
32933;BME280;19444;50.518;10.870;2023-02-01T02:10:22;96561.53;;;1.24;100.00
32933;BME280;19444;50.518;10.870;2023-02-01T02:13:40;96577.84;;;1.21;100.00
32933;BME280;19444;50.518;10.870;2023-02-01T02:16:57;96583.19;;;1.26;100.00
32933;BME280;19444;50.518;10.870;2023-02-01T02:39:39;96574.50;;;0.87;100.00
32933;BME280;19444;50.518;10.870;2023-02-01T02:42:52;96557.59;;;0.82;100.00
32933;BME280;19444;50.518;10.870;2023-02-01T02:46:26;96565.50;;;0.82;100.00
32933;BME280;19444;50.518;10.870;2023-02-01T02:49:49;96569.25;;;0.87;100.00
32933;BME280;19444;50.518;10.870;2023-02-01T02:53:20;96564.75;;;0.87;100.00
32933;BME280;19444;50.518;10.870;2023-02-01T02:56:38;96558.97;;;0.90;100.00
32933;BME280;19444;50.518;10.870;2023-02-01T02:59:55;96559.59;;;0.97;100.00
32933;BME280;19444;50.518;10.870;2023-02-01T03:03:12;96546.75;;;1.01;100.00
32933;BME280;19444;50.518;10.870;2023-02-01T03:06:28;96552.81;;;1.01;100.00
32933;BME280;19444;50.518;10.870;2023-02-01T03:09:32;96554.97;;;1.04;100.00
32933;BME280;19444;50.518;10.870;2023-02-01T03:12:31;96561.28;;;1.03;100.00
32933;BME280;19444;50.518;10.870;2023-02-01T03:16:24;96556.31;;;1.07;100.00
32933;BME280;19444;50.518;10.870;2023-02-01T03:19:40;96539.75;;;1.11;100.00
32933;BME280;19444;50.518;10.870;2023-02-01T03:22:40;96535.31;;;1.17;100.00
32933;BME280;19444;50.518;10.870;2023-02-01T03:25:37;96525.06;;;1.21;100.00
32933;BME280;19444;50.518;10.870;2023-02-01T03:28:34;96508.97;;;1.22;100.00
32933;BME280;19444;50.518;10.870;2023-02-01T03:31:33;96518.25;;;1.25;100.00
32933;BME280;19444;50.518;10.870;2023-02-01T03:34:30;96521.06;;;1.18;100.00
32933;BME280;19444;50.518;10.870;2023-02-01T03:37:27;96491.84;;;1.25;100.00
32933;BME280;19444;50.518;10.870;2023-02-01T03:40:24;96506.63;;;1.26;100.00
32933;BME280;19444;50.518;10.870;2023-02-01T03:43:22;96524.03;;;1.22;100.00
32933;BME280;19444;50.518;10.870;2023-02-01T03:46:29;96516.91;;;1.22;100.00
32933;BME280;19444;50.518;10.870;2023-02-01T03:49:35;96512.34;;;1.18;100.00
32933;BME280;19444;50.518;10.870;2023-02-01T03:52:39;96511.44;;;1.29;100.00
32933;BME280;19444;50.518;10.870;2023-02-01T03:55:37;96504.00;;;1.26;100.00
32933;BME280;19444;50.518;10.870;2023-02-01T03:58:34;96518.25;;;1.25;100.00
32933;BME280;19444;50.518;10.870;2023-02-01T04:01:31;96511.91;;;1.26;100.00
32933;BME280;19444;50.518;10.870;2023-02-01T04:04:28;96510.41;;;1.35;100.00
32933;BME280;19444;50.518;10.870;2023-02-01T04:07:25;96501.78;;;1.39;100.00
32933;BME280;19444;50.518;10.870;2023-02-01T04:10:22;96504.41;;;1.39;100.00
32933;BME280;19444;50.518;10.870;2023-02-01T04:13:20;96495.19;;;1.42;100.00
32933;BME280;19444;50.518;10.870;2023-02-01T04:16:16;96500.66;;;1.35;100.00
32933;BME280;19444;50.518;10.870;2023-02-01T04:19:13;96502.16;;;1.26;100.00
32933;BME280;19444;50.518;10.870;2023-02-01T04:22:10;96493.94;;;1.23;100.00
32933;BME280;19444;50.518;10.870;2023-02-01T04:25:08;96486.63;;;1.30;100.00
32933;BME280;19444;50.518;10.870;2023-02-01T04:28:05;96489.81;;;1.32;100.00
32933;BME280;19444;50.518;10.870;2023-02-01T04:31:03;96504.31;;;1.29;100.00
32933;BME280;19444;50.518;10.870;2023-02-01T04:34:00;96508.44;;;1.20;100.00
32933;BME280;19444;50.518;10.870;2023-02-01T04:36:57;96506.34;;;1.00;100.00
32933;BME280;19444;50.518;10.870;2023-02-01T04:39:54;96506.41;;;1.05;100.00
32933;BME280;19444;50.518;10.870;2023-02-01T04:42:50;96506.69;;;1.09;100.00
32933;BME280;19444;50.518;10.870;2023-02-01T04:45:48;96516.72;;;1.07;100.00
32933;BME280;19444;50.518;10.870;2023-02-01T04:48:45;96510.13;;;1.09;100.00
32933;BME280;19444;50.518;10.870;2023-02-01T04:51:42;96502.78;;;1.11;100.00
32933;BME280;19444;50.518;10.870;2023-02-01T04:54:39;96508.88;;;1.12;100.00
32933;BME280;19444;50.518;10.870;2023-02-01T04:57:35;96510.22;;;1.14;100.00
32933;BME280;19444;50.518;10.870;2023-02-01T05:00:35;96500.94;;;1.12;100.00
32933;BME280;19444;50.518;10.870;2023-02-01T05:03:33;96492.53;;;1.15;100.00
32933;BME280;19444;50.518;10.870;2023-02-01T05:06:30;96484.91;;;1.19;100.00
32933;BME280;19444;50.518;10.870;2023-02-01T05:09:26;96479.03;;;1.11;100.00
32933;BME280;19444;50.518;10.870;2023-02-01T05:12:23;96478.25;;;1.11;100.00
32933;BME280;19444;50.518;10.870;2023-02-01T05:15:39;96469.56;;;1.16;100.00
32933;BME280;19444;50.518;10.870;2023-02-01T05:18:36;96463.56;;;1.20;100.00
32933;BME280;19444;50.518;10.870;2023-02-01T05:21:32;96459.56;;;1.18;100.00
32933;BME280;19444;50.518;10.870;2023-02-01T05:24:29;96454.72;;;1.09;100.00
32933;BME280;19444;50.518;10.870;2023-02-01T05:27:29;96450.81;;;1.12;100.00
32933;BME280;19444;50.518;10.870;2023-02-01T05:30:26;96446.63;;;1.16;100.00
32933;BME280;19444;50.518;10.870;2023-02-01T05:33:22;96446.63;;;1.16;100.00
32933;BME280;19444;50.518;10.870;2023-02-01T05:36:19;96443.72;;;1.18;100.00
32933;BME280;19444;50.518;10.870;2023-02-01T05:39:16;96441.59;;;1.14;100.00
32933;BME280;19444;50.518;10.870;2023-02-01T05:42:13;96429.44;;;1.13;100.00
32933;BME280;19444;50.518;10.870;2023-02-01T05:45:10;96437.06;;;1.10;100.00
32933;BME280;19444;50.518;10.870;2023-02-01T05:48:07;96435.78;;;1.12;100.00
32933;BME280;19444;50.518;10.870;2023-02-01T05:51:04;96441.84;;;1.13;100.00
32933;BME280;19444;50.518;10.870;2023-02-01T05:54:00;96443.19;;;1.16;100.00
32933;BME280;19444;50.518;10.870;2023-02-01T05:56:57;96443.19;;;1.16;100.00
32933;BME280;19444;50.518;10.870;2023-02-01T05:59:54;96433.16;;;1.18;100.00
32933;BME280;19444;50.518;10.870;2023-02-01T06:02:51;96438.94;;;1.14;100.00
32933;BME280;19444;50.518;10.870;2023-02-01T06:05:48;96445.72;;;1.32;100.00
32933;BME280;19444;50.518;10.870;2023-02-01T06:08:45;96447.31;;;1.33;100.00
32933;BME280;19444;50.518;10.870;2023-02-01T06:11:42;96451.34;;;1.41;100.00
32933;BME280;19444;50.518;10.870;2023-02-01T06:14:39;96461.72;;;1.48;100.00
32933;BME280;19444;50.518;10.870;2023-02-01T06:17:35;96460.13;;;1.47;100.00
32933;BME280;19444;50.518;10.870;2023-02-01T06:20:32;96451.34;;;1.41;100.00
32933;BME280;19444;50.518;10.870;2023-02-01T06:23:29;96446.31;;;1.39;100.00
32933;BME280;19444;50.518;10.870;2023-02-01T06:26:26;96437.19;;;1.52;100.00
32933;BME280;19444;50.518;10.870;2023-02-01T06:29:25;96446.69;;;1.53;100.00
32933;BME280;19444;50.518;10.870;2023-02-01T06:32:23;96440.13;;;1.56;100.00
32933;BME280;19444;50.518;10.870;2023-02-01T06:35:20;96450.19;;;1.59;100.00
32933;BME280;19444;50.518;10.870;2023-02-01T06:38:16;96452.50;;;1.50;100.00
32933;BME280;19444;50.518;10.870;2023-02-01T06:41:14;96440.69;;;1.58;100.00
32933;BME280;19444;50.518;10.870;2023-02-01T06:44:11;96446.25;;;1.61;100.00
32933;BME280;19444;50.518;10.870;2023-02-01T06:47:07;96445.19;;;1.62;100.00
32933;BME280;19444;50.518;10.870;2023-02-01T06:50:05;96453.38;;;1.61;100.00
32933;BME280;19444;50.518;10.870;2023-02-01T06:53:02;96453.38;;;1.61;100.00
32933;BME280;19444;50.518;10.870;2023-02-01T06:56:01;96464.47;;;1.63;100.00
32933;BME280;19444;50.518;10.870;2023-02-01T06:58:58;96453.09;;;1.57;100.00
32933;BME280;19444;50.518;10.870;2023-02-01T07:01:55;96446.50;;;1.60;100.00
32933;BME280;19444;50.518;10.870;2023-02-01T07:04:52;96453.88;;;1.58;100.00
32933;BME280;19444;50.518;10.870;2023-02-01T07:07:48;96449.13;;;1.60;100.00
32933;BME280;19444;50.518;10.870;2023-02-01T07:10:45;96448.06;;;1.56;100.00
32933;BME280;19444;50.518;10.870;2023-02-01T07:13:42;96456.00;;;1.61;100.00
32933;BME280;19444;50.518;10.870;2023-02-01T07:16:39;96447.28;;;1.60;100.00
32933;BME280;19444;50.518;10.870;2023-02-01T07:19:36;96447.00;;;1.57;100.00
32933;BME280;19444;50.518;10.870;2023-02-01T07:22:33;96453.91;;;1.63;100.00
32933;BME280;19444;50.518;10.870;2023-02-01T07:25:30;96447.84;;;1.62;100.00
32933;BME280;19444;50.518;10.870;2023-02-01T07:28:29;96446.28;;;1.66;100.00
32933;BME280;19444;50.518;10.870;2023-02-01T07:31:26;96454.69;;;1.58;100.00
32933;BME280;19444;50.518;10.870;2023-02-01T07:34:25;96450.53;;;1.67;100.00
32933;BME280;19444;50.518;10.870;2023-02-01T07:37:22;96443.91;;;1.65;100.00
32933;BME280;19444;50.518;10.870;2023-02-01T07:40:20;96439.97;;;1.67;100.00
32933;BME280;19444;50.518;10.870;2023-02-01T07:43:21;96432.91;;;1.78;100.00
32933;BME280;19444;50.518;10.870;2023-02-01T07:46:18;96432.31;;;1.71;100.00
32933;BME280;19444;50.518;10.870;2023-02-01T07:49:15;96443.34;;;1.63;100.00
32933;BME280;19444;50.518;10.870;2023-02-01T07:52:14;96436.53;;;1.67;100.00
32933;BME280;19444;50.518;10.870;2023-02-01T07:55:13;96443.16;;;1.69;100.00
32933;BME280;19444;50.518;10.870;2023-02-01T07:58:10;96440.56;;;1.75;100.00
32933;BME280;19444;50.518;10.870;2023-02-01T08:01:14;96434.47;;;1.74;100.00
32933;BME280;19444;50.518;10.870;2023-02-01T08:04:17;96436.00;;;1.70;100.00
32933;BME280;19444;50.518;10.870;2023-02-01T08:07:14;96455.88;;;1.78;100.00
32933;BME280;19444;50.518;10.870;2023-02-01T08:10:10;96460.59;;;1.70;100.00
32933;BME280;19444;50.518;10.870;2023-02-01T08:13:08;96450.06;;;1.76;100.00
32933;BME280;19444;50.518;10.870;2023-02-01T08:16:06;96453.50;;;1.76;100.00
32933;BME280;19444;50.518;10.870;2023-02-01T08:19:03;96452.97;;;1.74;100.00
32933;BME280;19444;50.518;10.870;2023-02-01T08:22:00;96460.41;;;1.82;100.00
32933;BME280;19444;50.518;10.870;2023-02-01T08:25:02;96459.47;;;1.93;100.00
32933;BME280;19444;50.518;10.870;2023-02-01T08:27:59;96464.91;;;1.82;100.00
32933;BME280;19444;50.518;10.870;2023-02-01T08:30:56;96457.88;;;1.92;100.00
32933;BME280;19444;50.518;10.870;2023-02-01T08:33:55;96464.28;;;2.02;100.00
32933;BME280;19444;50.518;10.870;2023-02-01T08:36:52;96472.16;;;1.96;100.00
32933;BME280;19444;50.518;10.870;2023-02-01T08:39:54;96477.19;;;1.98;100.00
32933;BME280;19444;50.518;10.870;2023-02-01T08:42:51;96465.78;;;1.92;100.00
32933;BME280;19444;50.518;10.870;2023-02-01T08:45:48;96459.22;;;2.00;100.00
32933;BME280;19444;50.518;10.870;2023-02-01T08:48:46;96475.00;;;1.90;100.00
32933;BME280;19444;50.518;10.870;2023-02-01T08:51:43;96447.84;;;1.99;100.00
32933;BME280;19444;50.518;10.870;2023-02-01T08:54:39;96454.91;;;1.89;100.00
32933;BME280;19444;50.518;10.870;2023-02-01T08:57:38;96459.00;;;2.02;100.00
32933;BME280;19444;50.518;10.870;2023-02-01T09:00:36;96451.84;;;2.02;100.00
32933;BME280;19444;50.518;10.870;2023-02-01T09:03:33;96472.22;;;2.07;100.00
32933;BME280;19444;50.518;10.870;2023-02-01T09:06:30;96451.34;;;2.05;100.00
32933;BME280;19444;50.518;10.870;2023-02-01T09:09:27;96461.66;;;2.07;100.00
32933;BME280;19444;50.518;10.870;2023-02-01T09:12:24;96445.56;;;2.13;100.00
32933;BME280;19444;50.518;10.870;2023-02-01T09:15:21;96453.28;;;2.20;100.00
32933;BME280;19444;50.518;10.870;2023-02-01T09:18:18;96460.66;;;2.13;100.00
32933;BME280;19444;50.518;10.870;2023-02-01T09:21:15;96461.25;;;2.25;100.00
32933;BME280;19444;50.518;10.870;2023-02-01T09:24:12;96446.69;;;2.22;100.00
32933;BME280;19444;50.518;10.870;2023-02-01T09:27:09;96462.03;;;2.20;100.00
32933;BME280;19444;50.518;10.870;2023-02-01T09:30:06;96471.09;;;2.35;100.00
32933;BME280;19444;50.518;10.870;2023-02-01T09:33:04;96481.31;;;2.21;100.00
32933;BME280;19444;50.518;10.870;2023-02-01T09:36:03;96497.97;;;2.21;100.00
32933;BME280;19444;50.518;10.870;2023-02-01T09:39:00;96492.66;;;2.16;100.00
32933;BME280;19444;50.518;10.870;2023-02-01T09:42:06;96499.56;;;2.22;100.00
32933;BME280;19444;50.518;10.870;2023-02-01T09:48:24;96526.84;;;1.96;100.00
32933;BME280;19444;50.518;10.870;2023-02-01T09:51:35;96524.75;;;1.98;100.00
32933;BME280;19444;50.518;10.870;2023-02-01T09:54:52;96520.56;;;2.02;100.00
32933;BME280;19444;50.518;10.870;2023-02-01T09:57:58;96516.69;;;2.15;100.00
32933;BME280;19444;50.518;10.870;2023-02-01T10:00:59;96528.53;;;2.07;100.00
32933;BME280;19444;50.518;10.870;2023-02-01T10:04:07;96524.81;;;2.08;100.00
32933;BME280;19444;50.518;10.870;2023-02-01T10:10:45;96524.69;;;2.20;100.00
32933;BME280;19444;50.518;10.870;2023-02-01T10:14:02;96518.88;;;2.23;100.00
32933;BME280;19444;50.518;10.870;2023-02-01T10:20:52;96531.94;;;2.40;100.00
32933;BME280;19444;50.518;10.870;2023-02-01T10:27:21;96515.31;;;2.44;100.00
32933;BME280;19444;50.518;10.870;2023-02-01T10:30:21;96516.09;;;2.45;100.00
32933;BME280;19444;50.518;10.870;2023-02-01T10:33:30;96525.19;;;2.59;100.00
32933;BME280;19444;50.518;10.870;2023-02-01T10:36:32;96535.47;;;2.55;100.00
32933;BME280;19444;50.518;10.870;2023-02-01T10:39:29;96516.47;;;2.59;100.00
32933;BME280;19444;50.518;10.870;2023-02-01T10:42:27;96522.25;;;2.55;100.00
32933;BME280;19444;50.518;10.870;2023-02-01T10:45:28;96511.97;;;2.59;100.00
32933;BME280;19444;50.518;10.870;2023-02-01T10:48:25;96511.38;;;2.52;100.00
32933;BME280;19444;50.518;10.870;2023-02-01T10:51:24;96512.19;;;2.52;100.00
32933;BME280;19444;50.518;10.870;2023-02-01T10:54:33;96511.88;;;2.44;100.00
32933;BME280;19444;50.518;10.870;2023-02-01T10:57:31;96502.66;;;2.51;100.00
32933;BME280;19444;50.518;10.870;2023-02-01T11:00:34;96504.22;;;2.47;100.00
32933;BME280;19444;50.518;10.870;2023-02-01T11:07:05;96487.06;;;2.55;100.00
32933;BME280;19444;50.518;10.870;2023-02-01T11:10:04;96484.91;;;2.47;100.00
32933;BME280;19444;50.518;10.870;2023-02-01T11:13:03;96485.50;;;2.59;100.00
32933;BME280;19444;50.518;10.870;2023-02-01T11:16:00;96473.91;;;2.70;100.00
32933;BME280;19444;50.518;10.870;2023-02-01T11:18:58;96482.38;;;2.72;100.00
32933;BME280;19444;50.518;10.870;2023-02-01T11:21:57;96493.28;;;2.76;100.00
32933;BME280;19444;50.518;10.870;2023-02-01T11:24:55;96490.59;;;2.71;100.00
32933;BME280;19444;50.518;10.870;2023-02-01T11:27:54;96493.41;;;2.49;100.00
32933;BME280;19444;50.518;10.870;2023-02-01T11:30:54;96493.00;;;2.30;100.00
32933;BME280;19444;50.518;10.870;2023-02-01T11:33:55;96495.13;;;2.33;100.00
32933;BME280;19444;50.518;10.870;2023-02-01T11:36:55;96500.69;;;2.32;100.00
32933;BME280;19444;50.518;10.870;2023-02-01T11:39:59;96493.56;;;2.37;100.00
32933;BME280;19444;50.518;10.870;2023-02-01T11:42:58;96485.31;;;2.28;100.00
32933;BME280;19444;50.518;10.870;2023-02-01T11:46:01;96482.19;;;2.37;100.00
32933;BME280;19444;50.518;10.870;2023-02-01T11:49:37;96495.41;;;2.37;100.00
32933;BME280;19444;50.518;10.870;2023-02-01T12:02:43;96480.53;;;2.25;100.00
32933;BME280;19444;50.518;10.870;2023-02-01T12:09:38;96465.22;;;2.27;100.00
32933;BME280;19444;50.518;10.870;2023-02-01T12:16:19;96450.44;;;2.32;100.00
32933;BME280;19444;50.518;10.870;2023-02-01T12:19:23;96448.53;;;2.22;100.00
32933;BME280;19444;50.518;10.870;2023-02-01T12:22:36;96436.91;;;2.23;100.00
32933;BME280;19444;50.518;10.870;2023-02-01T12:26:00;96435.81;;;2.19;100.00
32933;BME280;19444;50.518;10.870;2023-02-01T12:32:31;96437.44;;;2.20;100.00
32933;BME280;19444;50.518;10.870;2023-02-01T12:35:54;96435.34;;;2.27;100.00
32933;BME280;19444;50.518;10.870;2023-02-01T12:39:05;96430.06;;;2.27;100.00
32933;BME280;19444;50.518;10.870;2023-02-01T12:42:17;96423.69;;;2.28;100.00
32933;BME280;19444;50.518;10.870;2023-02-01T12:45:36;96424.03;;;2.37;100.00
32933;BME280;19444;50.518;10.870;2023-02-01T12:51:40;96437.25;;;2.37;100.00
32933;BME280;19444;50.518;10.870;2023-02-01T12:54:53;96425.91;;;2.41;100.00
32933;BME280;19444;50.518;10.870;2023-02-01T13:01:15;96405.84;;;2.55;100.00
32933;BME280;19444;50.518;10.870;2023-02-01T13:04:26;96396.88;;;2.56;100.00
32933;BME280;19444;50.518;10.870;2023-02-01T13:07:36;96412.47;;;2.48;100.00
32933;BME280;19444;50.518;10.870;2023-02-01T13:10:57;96402.69;;;2.48;100.00
32933;BME280;19444;50.518;10.870;2023-02-01T13:17:04;96388.13;;;2.56;100.00
32933;BME280;19444;50.518;10.870;2023-02-01T13:23:28;96387.09;;;2.57;100.00
32933;BME280;19444;50.518;10.870;2023-02-01T13:26:26;96393.44;;;2.61;100.00
32933;BME280;19444;50.518;10.870;2023-02-01T13:29:23;96372.22;;;2.46;100.00
32933;BME280;19444;50.518;10.870;2023-02-01T13:42:54;96366.22;;;2.66;100.00
32933;BME280;19444;50.518;10.870;2023-02-01T13:45:55;96359.91;;;2.77;100.00
32933;BME280;19444;50.518;10.870;2023-02-01T13:48:58;96363.28;;;2.57;100.00
32933;BME280;19444;50.518;10.870;2023-02-01T13:51:57;96368.31;;;2.64;100.00
32933;BME280;19444;50.518;10.870;2023-02-01T13:58:35;96361.25;;;2.74;100.00
32933;BME280;19444;50.518;10.870;2023-02-01T14:01:33;96363.88;;;2.74;100.00
32933;BME280;19444;50.518;10.870;2023-02-01T14:04:48;96368.31;;;2.64;100.00
32933;BME280;19444;50.518;10.870;2023-02-01T14:11:00;96351.41;;;2.70;100.00
32933;BME280;19444;50.518;10.870;2023-02-01T14:14:02;96340.31;;;2.68;100.00
32933;BME280;19444;50.518;10.870;2023-02-01T14:20:41;96354.31;;;2.63;100.00
32933;BME280;19444;50.518;10.870;2023-02-01T14:23:57;96347.44;;;2.72;100.00
32933;BME280;19444;50.518;10.870;2023-02-01T14:26:58;96336.34;;;2.65;100.00
32933;BME280;19444;50.518;10.870;2023-02-01T14:30:06;96342.44;;;2.66;100.00
32933;BME280;19444;50.518;10.870;2023-02-01T14:33:24;96341.41;;;2.87;100.00
32933;BME280;19444;50.518;10.870;2023-02-01T14:36:23;96312.81;;;2.84;100.00
32933;BME280;19444;50.518;10.870;2023-02-01T14:39:25;96321.53;;;2.69;100.00
32933;BME280;19444;50.518;10.870;2023-02-01T14:42:44;96317.03;;;2.75;100.00
32933;BME280;19444;50.518;10.870;2023-02-01T14:45:47;96326.00;;;2.59;100.00
32933;BME280;19444;50.518;10.870;2023-02-01T14:48:46;96313.06;;;2.67;100.00
32933;BME280;19444;50.518;10.870;2023-02-01T14:51:44;96315.94;;;2.61;100.00
32933;BME280;19444;50.518;10.870;2023-02-01T14:54:40;96317.03;;;2.70;100.00
32933;BME280;19444;50.518;10.870;2023-02-01T14:57:38;96322.81;;;2.62;100.00
32933;BME280;19444;50.518;10.870;2023-02-01T15:00:36;96305.88;;;2.63;100.00
32933;BME280;19444;50.518;10.870;2023-02-01T15:03:45;96315.41;;;2.64;100.00
32933;BME280;19444;50.518;10.870;2023-02-01T15:06:44;96312.47;;;2.55;100.00
32933;BME280;19444;50.518;10.870;2023-02-01T15:09:45;96329.97;;;2.61;100.00
32933;BME280;19444;50.518;10.870;2023-02-01T15:12:45;96328.06;;;2.46;100.00
32933;BME280;19444;50.518;10.870;2023-02-01T15:15:44;96325.72;;;2.55;100.00
32933;BME280;19444;50.518;10.870;2023-02-01T15:18:41;96331.78;;;2.50;100.00
32933;BME280;19444;50.518;10.870;2023-02-01T15:21:47;96314.84;;;2.46;100.00
32933;BME280;19444;50.518;10.870;2023-02-01T15:24:51;96325.41;;;2.46;100.00
32933;BME280;19444;50.518;10.870;2023-02-01T15:27:48;96329.94;;;2.56;100.00
32933;BME280;19444;50.518;10.870;2023-02-01T15:30:57;96331.28;;;2.59;100.00
32933;BME280;19444;50.518;10.870;2023-02-01T15:33:57;96332.81;;;2.44;100.00
32933;BME280;19444;50.518;10.870;2023-02-01T15:36:54;96322.00;;;2.51;100.00
32933;BME280;19444;50.518;10.870;2023-02-01T15:43:11;96309.31;;;2.53;100.00
32933;BME280;19444;50.518;10.870;2023-02-01T15:46:11;96321.47;;;2.54;100.00
32933;BME280;19444;50.518;10.870;2023-02-01T15:49:39;96307.22;;;2.60;100.00
32933;BME280;19444;50.518;10.870;2023-02-01T15:52:39;96315.91;;;2.55;100.00
32933;BME280;19444;50.518;10.870;2023-02-01T15:55:37;96313.50;;;2.44;100.00
32933;BME280;19444;50.518;10.870;2023-02-01T15:58:41;96310.91;;;2.59;100.00
32933;BME280;19444;50.518;10.870;2023-02-01T16:01:39;96305.88;;;2.63;100.00
32933;BME280;19444;50.518;10.870;2023-02-01T16:04:46;96304.28;;;2.51;100.00
32933;BME280;19444;50.518;10.870;2023-02-01T16:07:53;96302.72;;;2.71;100.00
32933;BME280;19444;50.518;10.870;2023-02-01T16:11:14;96312.25;;;2.56;100.00
32933;BME280;19444;50.518;10.870;2023-02-01T16:14:11;96324.44;;;2.68;100.00
32933;BME280;19444;50.518;10.870;2023-02-01T16:17:08;96298.53;;;2.75;100.00
32933;BME280;19444;50.518;10.870;2023-02-01T16:20:06;96300.38;;;2.74;100.00
32933;BME280;19444;50.518;10.870;2023-02-01T16:23:03;96319.66;;;2.70;100.00
32933;BME280;19444;50.518;10.870;2023-02-01T16:26:00;96315.16;;;2.70;100.00
32933;BME280;19444;50.518;10.870;2023-02-01T16:28:58;96333.63;;;2.55;100.00
32933;BME280;19444;50.518;10.870;2023-02-01T16:31:55;96322.06;;;2.66;100.00
32933;BME280;19444;50.518;10.870;2023-02-01T16:34:51;96322.56;;;2.63;100.00
32933;BME280;19444;50.518;10.870;2023-02-01T16:37:49;96322.00;;;2.51;100.00
32933;BME280;19444;50.518;10.870;2023-02-01T16:40:46;96352.91;;;2.45;100.00
32933;BME280;19444;50.518;10.870;2023-02-01T16:43:44;96349.25;;;2.51;100.00
32933;BME280;19444;50.518;10.870;2023-02-01T16:46:45;96354.03;;;2.60;100.00
32933;BME280;19444;50.518;10.870;2023-02-01T16:49:43;96350.50;;;2.34;100.00
32933;BME280;19444;50.518;10.870;2023-02-01T16:52:40;96364.19;;;2.20;100.00
32933;BME280;19444;50.518;10.870;2023-02-01T16:55:37;96362.84;;;2.18;100.00
32933;BME280;19444;50.518;10.870;2023-02-01T16:58:34;96349.34;;;2.14;100.00
32933;BME280;19444;50.518;10.870;2023-02-01T17:01:31;96358.66;;;2.27;100.00
32933;BME280;19444;50.518;10.870;2023-02-01T17:04:28;96363.94;;;2.27;100.00
32933;BME280;19444;50.518;10.870;2023-02-01T17:07:25;96349.13;;;2.21;100.00
32933;BME280;19444;50.518;10.870;2023-02-01T17:10:24;96358.13;;;2.20;100.00
32933;BME280;19444;50.518;10.870;2023-02-01T17:13:30;96360.50;;;2.21;100.00
32933;BME280;19444;50.518;10.870;2023-02-01T17:16:28;96364.25;;;2.31;100.00
32933;BME280;19444;50.518;10.870;2023-02-01T17:19:25;96370.56;;;2.24;100.00
32933;BME280;19444;50.518;10.870;2023-02-01T17:22:23;96377.91;;;2.17;100.00